D/T METAR WX W/DIR W/SPE G/SPE TEMP DEWP
16/01/19 02:50 EGXP 160250Z AUTO 22016KT 9999 // SCT014/// BKN021/// BKN032/// 08/07 Q1005 SW (220°) 18.4mph 8°C 7°C
16/01/19 01:50 EGXP 160150Z AUTO 22016KT 9999 // FEW007/// BKN022/// BKN140/// 08/07 Q1006 SW (220°) 18.4mph 8°C 7°C
16/01/19 00:50 EGXP 160050Z AUTO 23014KT 9999 // SCT020/// BKN130/// 08/06 Q1007 SW (230°) 16.1mph 8°C 6°C
15/01/19 23:50 EGXP 152350Z AUTO 23015KT 9999 // SCT017/// BKN140/// 08/06 Q1008 SW (230°) 17.3mph 8°C 6°C
15/01/19 22:50 EGXP 152250Z AUTO 23013KT 9999 // BKN021/// BKN150/// 08/06 Q1008 SW (230°) 15.0mph 8°C 6°C
15/01/19 21:50 EGXP 152150Z AUTO 24015KT 9999 // OVC130/// 08/06 Q1009 WSW (240°) 17.3mph 8°C 6°C
15/01/19 20:50 EGXP 152050Z AUTO 23011KT 9999 // BKN140/// 08/06 Q1010 SW (230°) 12.7mph 8°C 6°C
15/01/19 19:50 EGXP 151950Z AUTO 23011KT 9999 // BKN031/// OVC160/// 08/06 Q1011 SW (230°) 12.7mph 8°C 6°C
15/01/19 18:50 EGXP 151850Z AUTO 23011KT 9999 // BKN030/// 08/06 Q1011 SW (230°) 12.7mph 8°C 6°C
15/01/19 17:50 EGXP 151750Z AUTO 23013KT 9999 // OVC029/// 08/06 Q1012 SW (230°) 15.0mph 8°C 6°C
15/01/19 16:50 EGXP 151650Z AUTO 23011KT 9999 // OVC028/// 08/05 Q1012 SW (230°) 12.7mph 8°C 5°C
15/01/19 15:50 EGXP 151550Z 25012KT 9999 BKN035 09/04 Q1012 BLU WSW (250°) 13.8mph 9°C 4°C
15/01/19 14:50 EGXP 151450Z 26014KT 9999 BKN038 09/03 Q1013 BLU W (260°) 16.1mph 9°C 3°C
15/01/19 13:50 EGXP 151350Z 24014KT 9999 BKN037 09/06 Q1013 BLU WSW (240°) 16.1mph 9°C 6°C
15/01/19 12:50 EGXP 151250Z 26015KT 9999 FEW042 BKN180 09/05 Q1014 BLU W (260°) 17.3mph 9°C 5°C
15/01/19 11:50 EGXP 151150Z 26015KT CAVOK 10/05 Q1015 BLU W (260°) 17.3mph 10°C 5°C
15/01/19 10:50 EGXP 151050Z 25012KT CAVOK 08/06 Q1015 BLU WSW (250°) 13.8mph 8°C 6°C
15/01/19 09:50 EGXP 150950Z 24012KT CAVOK 06/05 Q1015 BLU WSW (240°) 13.8mph 6°C 5°C
15/01/19 08:50 EGXP 150850Z 23012KT CAVOK 05/04 Q1016 BLU SW (230°) 13.8mph 5°C 4°C
15/01/19 07:50 EGXP 150750Z 23012KT CAVOK 05/04 Q1015 BLU SW (230°) 13.8mph 5°C 4°C
15/01/19 06:50 EGXP 150650Z AUTO 23011KT 9999 // FEW024/// BKN035/// 06/05 Q1015 SW (230°) 12.7mph 6°C 5°C
15/01/19 05:50 EGXP 150550Z AUTO 23015KT 9999 // OVC033/// 06/04 Q1015 SW (230°) 17.3mph 6°C 4°C
15/01/19 04:50 EGXP 150450Z AUTO 22013KT 9999 // BKN032/// 05/04 Q1016 SW (220°) 15.0mph 5°C 4°C
15/01/19 03:50 EGXP 150350Z AUTO 23013KT 9999 // BKN033/// 05/04 Q1017 SW (230°) 15.0mph 5°C 4°C
15/01/19 02:50 EGXP 150250Z AUTO 24014KT 9999 // FEW039/// 04/03 Q1017 WSW (240°) 16.1mph 4°C 3°C
15/01/19 01:50 EGXP 150150Z AUTO 25014KT 9999 // NCD 04/03 Q1018 WSW (250°) 16.1mph 4°C 3°C
15/01/19 00:50 EGXP 150050Z AUTO 24013KT 9999 // NCD 04/02 Q1018 WSW (240°) 15.0mph 4°C 2°C
14/01/19 23:50 EGXP 142350Z AUTO 25012KT 9999 // BKN029/// 05/03 Q1019 WSW (250°) 13.8mph 5°C 3°C
14/01/19 22:50 EGXP 142250Z AUTO 23009KT 9999 // FEW028/// 04/03 Q1019 SW (230°) 10.4mph 4°C 3°C
14/01/19 21:50 EGXP 142150Z AUTO 24008KT 9999 // FEW025/// 02/01 Q1020 WSW (240°) 9.2mph 2°C 1°C
14/01/19 20:50 EGXP 142050Z AUTO 24007KT 9999 // SCT042/// SCT070/// 03/02 Q1020 WSW (240°) 8.1mph 3°C 2°C
14/01/19 19:50 EGXP 141950Z AUTO 26007KT 9999 // OVC046/// 04/03 Q1020 W (260°) 8.1mph 4°C 3°C
14/01/19 18:50 EGXP 141850Z AUTO 27007KT 9999 // BKN046/// 05/04 Q1020 W (270°) 8.1mph 5°C 4°C
14/01/19 17:50 EGXP 141750Z AUTO 22006KT 9999 // BKN050/// 06/03 Q1020 SW (220°) 6.9mph 6°C 3°C
14/01/19 16:50 EGXP 141650Z AUTO 22003KT 9999 // BKN050/// 05/03 Q1020 SW (220°) 3.5mph 5°C 3°C
14/01/19 15:50 EGXP 141550Z 31001KT 9999 BKN048 05/03 Q1020 BLU NW (310°) 1.2mph 5°C 3°C
14/01/19 14:50 EGXP 141450Z 32003KT 9999 FEW040 06/03 Q1020 BLU NW (320°) 3.5mph 6°C 3°C
14/01/19 13:50 EGXP 141350Z 34006KT 9999 BKN047 07/04 Q1019 BLU NNW (340°) 6.9mph 7°C 4°C
14/01/19 12:50 EGXP 141250Z 30006KT 9999 FEW027 BKN044 07/04 Q1019 BLU WNW (300°) 6.9mph 7°C 4°C
14/01/19 11:50 EGXP 141150Z 31007KT 9999 SCT030 BKN043 06/04 Q1019 BLU NW (310°) 8.1mph 6°C 4°C
14/01/19 10:50 EGXP 141050Z 29005KT 9999 SCT028 BKN041 06/04 Q1019 BLU WNW (290°) 5.8mph 6°C 4°C
14/01/19 09:50 EGXP 140950Z 33006KT 9999 FEW030 BKN050 05/04 Q1018 BLU NNW (330°) 6.9mph 5°C 4°C
14/01/19 08:50 EGXP 140850Z 32006KT 9999 BKN037 04/03 Q1018 BLU NW (320°) 6.9mph 4°C 3°C
14/01/19 07:50 EGXP 140750Z 26005KT 9999 FEW030 02/01 Q1017 BLU W (260°) 5.8mph 2°C 1°C
14/01/19 06:50 EGXP 140650Z AUTO 31008KT 9999 // OVC180/// 05/03 Q1016 NW (310°) 9.2mph 5°C 3°C
14/01/19 05:50 EGXP 140550Z AUTO 29008KT 9999 // BKN170/// 04/03 Q1016 WNW (290°) 9.2mph 4°C 3°C
14/01/19 04:50 EGXP 140450Z AUTO 30010KT 9999 // NCD 05/03 Q1015 WNW (300°) 11.5mph 5°C 3°C
14/01/19 03:50 EGXP 140350Z AUTO 30009KT 9999 // NCD 05/03 Q1014 WNW (300°) 10.4mph 5°C 3°C
14/01/19 02:50 EGXP 140250Z AUTO 30011KT 9999 // NCD 06/04 Q1013 WNW (300°) 12.7mph 6°C 4°C
14/01/19 01:50 EGXP 140150Z AUTO 30011KT 9999 // FEW043/// 06/03 Q1013 WNW (300°) 12.7mph 6°C 3°C
14/01/19 00:50 EGXP 140050Z AUTO 30013KT 9999 // NCD 06/03 Q1012 WNW (300°) 15.0mph 6°C 3°C
13/01/19 23:50 EGXP 132350Z AUTO 30013KT 9999 // FEW037/// 06/03 Q1012 WNW (300°) 15.0mph 6°C 3°C
13/01/19 22:50 EGXP 132250Z AUTO 30015KT 9999 // NCD 07/03 Q1011 WNW (300°) 17.3mph 7°C 3°C
13/01/19 21:50 EGXP 132150Z AUTO 29015KT 9999 // NCD 07/03 Q1010 WNW (290°) 17.3mph 7°C 3°C
13/01/19 20:50 EGXP 132050Z AUTO 29015KT 9999 // FEW050/// 07/03 Q1010 WNW (290°) 17.3mph 7°C 3°C
13/01/19 19:50 EGXP 131950Z AUTO 30019KT 9999 // BKN050/// 08/04 Q1009 WNW (300°) 21.9mph 8°C 4°C
13/01/19 18:50 EGXP 131850Z AUTO 30022KT 9999 // NCD 08/03 Q1009 WNW (300°) 25.3mph 8°C 3°C
13/01/19 17:50 EGXP 131750Z AUTO 30018KT 9999 // NCD 08/03 Q1008 WNW (300°) 20.7mph 8°C 3°C
13/01/19 16:50 EGXP 131650Z AUTO 30025G35KT 9999 // NCD 09/03 Q1008 WNW (300°) 28.8mph 40.3mph 9°C 3°C
13/01/19 15:50 EGXP 131550Z AUTO 30028G39KT 9999 // FEW050/// 10/05 Q1007 WNW (300°) 32.2mph 44.9mph 10°C 5°C
13/01/19 14:50 EGXP 131450Z AUTO 32022G32KT 9999 // FEW023/// BKN028/// 10/07 Q1007 NW (320°) 25.3mph 36.8mph 10°C 7°C
13/01/19 13:50 EGXP 131350Z AUTO 30024KT 9999 // BKN027/// BKN034/// 11/07 Q1007 WNW (300°) 27.6mph 11°C 7°C
13/01/19 12:50 EGXP 131250Z AUTO 30024KT 9999 // OVC025/// 11/07 Q1007 WNW (300°) 27.6mph 11°C 7°C
13/01/19 11:50 EGXP 131150Z AUTO 29023G33KT //// // SCT020/// BKN030/// 11/08 Q1007 WNW (290°) 26.5mph 38.0mph 11°C 8°C
13/01/19 10:50 EGXP 131050Z AUTO 26018KT 9999 // BKN020/// SCT027/// 10/08 Q1008 W (260°) 20.7mph 10°C 8°C
13/01/19 09:50 EGXP 130950Z AUTO 27019KT 9999 // BKN016/// BKN060/// 10/07 Q1009 W (270°) 21.9mph 10°C 7°C
13/01/19 08:50 EGXP 130850Z AUTO 27017KT 9999 // BKN020/// SCT060/// 09/07 Q1009 W (270°) 19.6mph 9°C 7°C
13/01/19 07:50 EGXP 130750Z AUTO 28014KT 9999 // OVC017/// 10/07 Q1010 W (280°) 16.1mph 10°C 7°C
13/01/19 06:50 EGXP 130650Z AUTO 28016KT 9999 // BKN020/// BKN150/// 10/07 Q1010 W (280°) 18.4mph 10°C 7°C
13/01/19 05:50 EGXP 130550Z AUTO 28018KT 9999 // BKN015/// SCT150/// 10/07 Q1010 W (280°) 20.7mph 10°C 7°C
13/01/19 04:50 EGXP 130450Z AUTO 28019KT 9999 // BKN018/// 10/07 Q1011 W (280°) 21.9mph 10°C 7°C
13/01/19 03:50 EGXP 130350Z AUTO 29016KT 9999 // BKN022/// 10/07 Q1012 WNW (290°) 18.4mph 10°C 7°C
13/01/19 02:50 EGXP 130250Z AUTO 28016KT 9999 // BKN022/// BKN110/// 10/07 Q1012 W (280°) 18.4mph 10°C 7°C
13/01/19 01:50 EGXP 130150Z AUTO 29022KT 9999 // FEW021/// OVC100/// 10/07 Q1012 WNW (290°) 25.3mph 10°C 7°C
13/01/19 00:50 EGXP 130050Z AUTO 29020KT 9999 // OVC020/// 11/08 Q1013 WNW (290°) 23.0mph 11°C 8°C
12/01/19 23:50 EGXP 122350Z AUTO 29019G29KT 9999 // BKN020/// SCT100/// 11/08 Q1014 WNW (290°) 21.9mph 33.4mph 11°C 8°C
12/01/19 22:50 EGXP 122250Z AUTO 29020KT 9999 // SCT017/// BKN110/// BKN140/// 10/08 Q1014 WNW (290°) 23.0mph 10°C 8°C
12/01/19 21:50 EGXP 122150Z AUTO 29019KT 9999 // BKN018/// BKN120/// 10/08 Q1014 WNW (290°) 21.9mph 10°C 8°C
12/01/19 20:50 EGXP 122050Z AUTO 30015KT 9999 // BKN018/// BKN140/// 10/08 Q1014 WNW (300°) 17.3mph 10°C 8°C
12/01/19 19:50 EGXP 121950Z AUTO 29012KT 9999 // OVC018/// 10/08 Q1015 WNW (290°) 13.8mph 10°C 8°C
12/01/19 18:50 EGXP 121850Z AUTO 26011KT 9999 // OVC019/// 08/08 Q1015 W (260°) 12.7mph 8°C 8°C
12/01/19 17:50 EGXP 121750Z AUTO 25009KT 9999 // BKN021/// 07/07 Q1015 WSW (250°) 10.4mph 7°C 7°C
12/01/19 16:50 EGXP 121650Z AUTO 26010KT 5000 // FEW018/// SCT023/// BKN044/// 07/07 Q1016 W (260°) 11.5mph 7°C 7°C
12/01/19 15:50 EGXP 121550Z AUTO 28015KT 9999 // FEW022/// BKN050/// 08/06 Q1016 W (280°) 17.3mph 8°C 6°C
12/01/19 14:50 EGXP 121450Z AUTO 29019KT 9999 // BKN022/// BKN070/// 09/06 Q1016 WNW (290°) 21.9mph 9°C 6°C
12/01/19 13:50 EGXP 121350Z AUTO 28016KT 9999 // BKN022/// BKN080/// 09/06 Q1017 W (280°) 18.4mph 9°C 6°C
12/01/19 12:50 EGXP 121250Z AUTO 28018KT 9999 // BKN090/// 09/06 Q1017 W (280°) 20.7mph 9°C 6°C
12/01/19 11:50 EGXP 121150Z AUTO 28018KT 9999 // FEW023/// OVC090/// 09/06 Q1018 W (280°) 20.7mph 9°C 6°C
12/01/19 10:50 EGXP 121050Z AUTO 28017KT 9999 // FEW022/// OVC090/// 08/06 Q1018 W (280°) 19.6mph 8°C 6°C
12/01/19 09:50 EGXP 120950Z AUTO 28016KT 9999 // BKN100/// 08/06 Q1019 W (280°) 18.4mph 8°C 6°C
12/01/19 08:50 EGXP 120850Z AUTO 27013KT 9999 // FEW022/// BKN130/// 08/07 Q1019 W (270°) 15.0mph 8°C 7°C
12/01/19 07:50 EGXP 120750Z AUTO 25015KT 9999 // BKN004/// SCT024/// 08/07 Q1019 WSW (250°) 17.3mph 8°C 7°C
12/01/19 06:50 EGXP 120650Z AUTO 24016KT 5000 // SCT003/// BKN012/// BKN017/// 08/07 Q1019 WSW (240°) 18.4mph 8°C 7°C
12/01/19 05:50 EGXP 120550Z AUTO 25015KT 2900 // SCT003/// BKN014/// 07/07 Q1020 WSW (250°) 17.3mph 7°C 7°C
12/01/19 04:50 EGXP 120450Z AUTO 25012KT 9999 // SCT014/// BKN030/// BKN070/// 08/06 Q1021 WSW (250°) 13.8mph 8°C 6°C
12/01/19 03:50 EGXP 120350Z AUTO 26015KT 9999 // FEW014/// BKN060/// 08/06 Q1022 W (260°) 17.3mph 8°C 6°C
12/01/19 02:50 EGXP 120250Z AUTO 25013KT 9999 // BKN015/// 08/06 Q1022 WSW (250°) 15.0mph 8°C 6°C
12/01/19 01:50 EGXP 120150Z AUTO 26011KT 9999 // OVC021/// 07/05 Q1023 W (260°) 12.7mph 7°C 5°C
12/01/19 00:50 EGXP 120050Z AUTO 25012KT 9999 // BKN022/// BKN028/// 07/05 Q1024 WSW (250°) 13.8mph 7°C 5°C
11/01/19 23:50 EGXP 112350Z AUTO 24011KT 9999 // BKN026/// BKN034/// 07/05 Q1025 WSW (240°) 12.7mph 7°C 5°C
11/01/19 22:50 EGXP 112250Z AUTO 24009KT 9999 // OVC029/// 07/05 Q1026 WSW (240°) 10.4mph 7°C 5°C
11/01/19 21:50 EGXP 112150Z AUTO 25008KT 9999 // OVC026/// 06/04 Q1027 WSW (250°) 9.2mph 6°C 4°C
11/01/19 20:50 EGXP 112050Z AUTO 25006KT 9999 // BKN029/// SCT036/// 06/03 Q1027 WSW (250°) 6.9mph 6°C 3°C
11/01/19 19:50 EGXP 111950Z AUTO 28007KT 9999 // OVC032/// 07/03 Q1028 W (280°) 8.1mph 7°C 3°C
11/01/19 18:50 EGXP 111850Z AUTO 28005KT 9999 // OVC031/// 06/04 Q1028 W (280°) 5.8mph 6°C 4°C
11/01/19 17:50 EGXP 111750Z AUTO 28006KT 9999 // OVC030/// 06/04 Q1028 W (280°) 6.9mph 6°C 4°C
11/01/19 16:50 EGXP 111650Z AUTO 29006KT 9999 // OVC027/// 06/04 Q1029 WNW (290°) 6.9mph 6°C 4°C
11/01/19 15:50 EGXP 111550Z AUTO 31008KT 9999 // SCT027/// BKN031/// 07/04 Q1029 NW (310°) 9.2mph 7°C 4°C
11/01/19 14:50 EGXP 111450Z 31006KT 9999 OVC032 07/05 Q1029 BLU NW (310°) 6.9mph 7°C 5°C
11/01/19 13:50 EGXP 111350Z 31008KT 9999 BKN034 07/05 Q1029 BLU NW (310°) 9.2mph 7°C 5°C
11/01/19 12:50 EGXP 111250Z 31009KT 9999 BKN037 08/04 Q1029 BLU NW (310°) 10.4mph 8°C 4°C
11/01/19 11:50 EGXP 111150Z 30010KT 9999 OVC042 07/04 Q1030 BLU WNW (300°) 11.5mph 7°C 4°C
11/01/19 10:50 EGXP 111050Z 31009KT 9999 BKN044 06/04 Q1030 BLU NW (310°) 10.4mph 6°C 4°C
11/01/19 09:50 EGXP 110950Z 30009KT 9999 BKN043 06/04 Q1030 BLU WNW (300°) 10.4mph 6°C 4°C
11/01/19 08:50 EGXP 110850Z 30009KT 9999 BKN044 05/04 Q1029 BLU WNW (300°) 10.4mph 5°C 4°C
11/01/19 07:50 EGXP 110750Z 31010KT 9999 BKN045 05/03 Q1029 BLU NW (310°) 11.5mph 5°C 3°C
11/01/19 06:50 EGXP 110650Z AUTO 31009KT 9999 // OVC048/// 05/04 Q1029 NW (310°) 10.4mph 5°C 4°C
11/01/19 05:50 EGXP 110550Z AUTO 31009KT 9999 // OVC050/// 06/04 Q1029 NW (310°) 10.4mph 6°C 4°C
11/01/19 04:50 EGXP 110450Z AUTO 31008KT 9999 // BKN050/// BKN200/// 05/04 Q1029 NW (310°) 9.2mph 5°C 4°C
11/01/19 03:50 EGXP 110350Z AUTO 32008KT 9999 // OVC050/// 05/04 Q1029 NW (320°) 9.2mph 5°C 4°C
11/01/19 02:50 EGXP 110250Z AUTO 31008KT 9999 // OVC050/// 06/04 Q1029 NW (310°) 9.2mph 6°C 4°C
11/01/19 01:50 EGXP 110150Z AUTO 31009KT 9999 // OVC050/// 06/04 Q1029 NW (310°) 10.4mph 6°C 4°C
11/01/19 00:50 EGXP 110050Z AUTO 31009KT 9999 // FEW032/// OVC050/// 06/04 Q1029 NW (310°) 10.4mph 6°C 4°C
10/01/19 23:50 EGXP 102350Z AUTO 31008KT 9999 // SCT031/// BKN050/// 06/05 Q1029 NW (310°) 9.2mph 6°C 5°C
10/01/19 20:50 EGXP 102050Z AUTO 32009KT 9999 // OVC024/// 07/05 Q1029 NW (320°) 10.4mph 7°C 5°C
10/01/19 19:50 EGXP 101950Z AUTO 31009KT 9000 // OVC023/// 07/06 Q1028 NW (310°) 10.4mph 7°C 6°C
10/01/19 18:50 EGXP 101850Z AUTO 31009KT 9999 // BKN026/// OVC050/// 07/06 Q1028 NW (310°) 10.4mph 7°C 6°C
10/01/19 17:50 EGXP 101750Z AUTO 28008KT 9000 // OVC050/// 06/06 Q1028 W (280°) 9.2mph 6°C 6°C
10/01/19 16:50 EGXP 101650Z AUTO 27009KT 5000 // OVC050/// 06/05 Q1028 W (270°) 10.4mph 6°C 5°C
10/01/19 15:50 EGXP 101550Z AUTO 27010KT 6000 // BKN050/// 06/05 Q1028 W (270°) 11.5mph 6°C 5°C
10/01/19 14:50 EGXP 101450Z 26007KT 8000 HZ FEW005 BKN050 06/05 Q1028 BLU HZ W (260°) 8.1mph 6°C 5°C
10/01/19 13:50 EGXP 101350Z 26009KT 9999 BKN009 BKN050 05/04 Q1028 GRN W (260°) 10.4mph 5°C 4°C
10/01/19 12:50 EGXP 101250Z 25005KT 9999 OVC007 05/03 Q1029 GRN WSW (250°) 5.8mph 5°C 3°C
10/01/19 11:50 EGXP 101150Z 25006KT 9999 BKN012 05/03 Q1029 GRN WSW (250°) 6.9mph 5°C 3°C
10/01/19 11:06 EGXP 101106Z 28007KT 9999 BKN012 BKN020 04/02 Q1029 GRN W (280°) 8.1mph 4°C 2°C
10/01/19 09:50 EGXP 100950Z 25006KT 9999 SCT030 BKN050 BKN090 03/01 Q1029 BLU WSW (250°) 6.9mph 3°C 1°C
10/01/19 08:50 EGXP 100850Z 26008KT CAVOK 01/00 Q1030 BLU W (260°) 9.2mph 1°C 0°C
10/01/19 07:50 EGXP 100750Z 24006KT CAVOK 01/M00 Q1029 BLU WSW (240°) 6.9mph 1°C 0°C
10/01/19 06:50 EGXP 100650Z AUTO 25004KT 9999 // BKN060/// OVC090/// 01/00 Q1029 WSW (250°) 4.6mph 1°C 0°C
10/01/19 05:50 EGXP 100550Z AUTO 27004KT 9999 // FEW050/// BKN090/// OVC190/// 01/M01 Q1029 W (270°) 4.6mph 1°C -1°C
10/01/19 04:50 EGXP 100450Z AUTO 28006KT 9999 // OVC090/// 01/M00 Q1030 W (280°) 6.9mph 1°C 0°C
10/01/19 03:50 EGXP 100350Z AUTO 30008KT 9999 // OVC090/// 01/M00 Q1030 WNW (300°) 9.2mph 1°C 0°C
10/01/19 02:50 EGXP 100250Z AUTO 32008KT 9999 // OVC090/// 01/M00 Q1030 NW (320°) 9.2mph 1°C 0°C
10/01/19 01:50 EGXP 100150Z AUTO 30008KT 9999 // SCT027/// BKN090/// 01/M00 Q1030 WNW (300°) 9.2mph 1°C 0°C